sensor_id;sensor_type;location;lat;lon;timestamp;pressure;altitude;pressure_sealevel;temperature;humidity
79067;BME280;68470;50.224;14.348;2023-06-22T00:01:27;99686.38;;;18.77;89.80
79067;BME280;68470;50.224;14.348;2023-06-22T00:03:54;99694.34;;;18.83;89.24
79067;BME280;68470;50.224;14.348;2023-06-22T00:06:19;99696.09;;;18.79;89.67
79067;BME280;68470;50.224;14.348;2023-06-22T00:08:45;99695.16;;;18.84;89.32
79067;BME280;68470;50.224;14.348;2023-06-22T00:11:11;99699.00;;;18.74;89.65
79067;BME280;68470;50.224;14.348;2023-06-22T00:13:37;99689.81;;;18.74;89.32
79067;BME280;68470;50.224;14.348;2023-06-22T00:16:03;99699.28;;;18.59;90.24
79067;BME280;68470;50.224;14.348;2023-06-22T00:18:29;99707.88;;;18.76;89.71
79067;BME280;68470;50.224;14.348;2023-06-22T00:20:55;99704.34;;;18.57;90.55
79067;BME280;68470;50.224;14.348;2023-06-22T00:23:23;99702.72;;;18.70;89.93
79067;BME280;68470;50.224;14.348;2023-06-22T00:25:49;99700.63;;;18.61;90.17
79067;BME280;68470;50.224;14.348;2023-06-22T00:28:15;99707.25;;;18.79;89.30
79067;BME280;68470;50.224;14.348;2023-06-22T00:30:40;99713.69;;;18.66;90.33
79067;BME280;68470;50.224;14.348;2023-06-22T00:33:06;99715.50;;;18.57;90.55
79067;BME280;68470;50.224;14.348;2023-06-22T00:35:33;99710.22;;;18.42;91.27
79067;BME280;68470;50.224;14.348;2023-06-22T00:38:00;99705.38;;;18.47;91.19
79067;BME280;68470;50.224;14.348;2023-06-22T00:40:27;99712.00;;;18.38;91.58
79067;BME280;68470;50.224;14.348;2023-06-22T00:42:54;99711.34;;;18.13;92.69
79067;BME280;68470;50.224;14.348;2023-06-22T00:45:19;99713.63;;;18.25;91.74
79067;BME280;68470;50.224;14.348;2023-06-22T00:47:46;99708.25;;;18.28;92.05
79067;BME280;68470;50.224;14.348;2023-06-22T00:50:16;99703.09;;;18.08;92.49
79067;BME280;68470;50.224;14.348;2023-06-22T00:52:44;99711.25;;;18.04;92.53
79067;BME280;68470;50.224;14.348;2023-06-22T00:55:11;99707.94;;;18.02;93.12
79067;BME280;68470;50.224;14.348;2023-06-22T00:57:37;99707.84;;;18.08;92.67
79067;BME280;68470;50.224;14.348;2023-06-22T01:00:03;99704.25;;;18.21;91.72
79067;BME280;68470;50.224;14.348;2023-06-22T01:02:34;99700.63;;;18.07;92.07
79067;BME280;68470;50.224;14.348;2023-06-22T01:04:59;99686.75;;;17.88;92.69
79067;BME280;68470;50.224;14.348;2023-06-22T01:07:35;99690.47;;;17.83;93.55
79067;BME280;68470;50.224;14.348;2023-06-22T01:12:46;99684.09;;;17.83;92.89
79067;BME280;68470;50.224;14.348;2023-06-22T01:15:31;99683.34;;;17.58;94.17
79067;BME280;68470;50.224;14.348;2023-06-22T01:17:59;99673.44;;;17.52;94.38
79067;BME280;68470;50.224;14.348;2023-06-22T01:20:26;99679.22;;;17.56;94.24
79067;BME280;68470;50.224;14.348;2023-06-22T01:23:07;99675.09;;;17.53;94.26
79067;BME280;68470;50.224;14.348;2023-06-22T01:31:01;99677.25;;;17.75;94.15
79067;BME280;68470;50.224;14.348;2023-06-22T01:33:35;99685.72;;;17.51;95.43
79067;BME280;68470;50.224;14.348;2023-06-22T01:36:02;99669.63;;;17.29;96.02
79067;BME280;68470;50.224;14.348;2023-06-22T01:38:29;99678.06;;;17.24;96.19
79067;BME280;68470;50.224;14.348;2023-06-22T01:40:57;99682.44;;;17.11;96.69
79067;BME280;68470;50.224;14.348;2023-06-22T01:43:26;99684.91;;;16.94;97.08
79067;BME280;68470;50.224;14.348;2023-06-22T01:45:53;99681.25;;;16.99;97.11
79067;BME280;68470;50.224;14.348;2023-06-22T01:48:19;99678.69;;;17.02;96.64
79067;BME280;68470;50.224;14.348;2023-06-22T01:50:45;99677.44;;;17.13;95.49
79067;BME280;68470;50.224;14.348;2023-06-22T01:53:11;99667.97;;;17.28;95.09
79067;BME280;68470;50.224;14.348;2023-06-22T01:55:37;99675.16;;;17.16;95.87
79067;BME280;68470;50.224;14.348;2023-06-22T01:58:03;99683.72;;;17.19;95.73
79067;BME280;68470;50.224;14.348;2023-06-22T02:00:31;99681.91;;;17.09;96.09
79067;BME280;68470;50.224;14.348;2023-06-22T02:03:02;99681.25;;;16.99;96.39
79067;BME280;68470;50.224;14.348;2023-06-22T02:05:37;99687.47;;;17.09;95.49
79067;BME280;68470;50.224;14.348;2023-06-22T02:08:09;99688.00;;;16.93;96.47
79067;BME280;68470;50.224;14.348;2023-06-22T02:10:37;99673.56;;;16.72;97.23
79067;BME280;68470;50.224;14.348;2023-06-22T02:13:04;99683.66;;;16.87;97.25
79067;BME280;68470;50.224;14.348;2023-06-22T02:15:31;99674.78;;;16.84;97.21
79067;BME280;68470;50.224;14.348;2023-06-22T02:17:58;99696.50;;;16.82;97.22
79067;BME280;68470;50.224;14.348;2023-06-22T02:20:23;99691.06;;;16.72;97.48
79067;BME280;68470;50.224;14.348;2023-06-22T02:22:49;99700.41;;;16.58;98.17
79067;BME280;68470;50.224;14.348;2023-06-22T02:25:15;99705.09;;;16.38;98.85
79067;BME280;68470;50.224;14.348;2023-06-22T02:27:41;99703.31;;;16.47;99.30
79067;BME280;68470;50.224;14.348;2023-06-22T02:30:08;99701.78;;;16.36;99.37
79067;BME280;68470;50.224;14.348;2023-06-22T02:32:35;99709.63;;;16.53;98.42
79067;BME280;68470;50.224;14.348;2023-06-22T02:35:01;99695.22;;;16.51;98.14
79067;BME280;68470;50.224;14.348;2023-06-22T02:37:31;99696.19;;;16.60;97.42
79067;BME280;68470;50.224;14.348;2023-06-22T02:39:57;99699.34;;;16.53;97.26
79067;BME280;68470;50.224;14.348;2023-06-22T02:42:23;99702.19;;;16.48;98.13
79067;BME280;68470;50.224;14.348;2023-06-22T02:44:48;99702.53;;;16.42;98.27
79067;BME280;68470;50.224;14.348;2023-06-22T02:47:15;99688.63;;;16.66;97.27
79067;BME280;68470;50.224;14.348;2023-06-22T02:49:41;99688.88;;;16.45;97.28
79067;BME280;68470;50.224;14.348;2023-06-22T02:52:07;99679.91;;;16.53;97.66
79067;BME280;68470;50.224;14.348;2023-06-22T02:54:33;99681.63;;;16.49;97.62
79067;BME280;68470;50.224;14.348;2023-06-22T02:56:59;99674.47;;;16.43;97.92
79067;BME280;68470;50.224;14.348;2023-06-22T02:59:28;99681.22;;;16.37;98.06
79067;BME280;68470;50.224;14.348;2023-06-22T03:01:54;99680.75;;;16.30;98.28
79067;BME280;68470;50.224;14.348;2023-06-22T03:04:19;99679.94;;;16.30;98.52
79067;BME280;68470;50.224;14.348;2023-06-22T03:06:45;99684.88;;;16.33;98.59
79067;BME280;68470;50.224;14.348;2023-06-22T03:09:16;99680.56;;;16.21;98.70
79067;BME280;68470;50.224;14.348;2023-06-22T03:11:42;99684.16;;;16.22;98.74
79067;BME280;68470;50.224;14.348;2023-06-22T03:14:08;99686.53;;;16.10;99.30
79067;BME280;68470;50.224;14.348;2023-06-22T03:16:34;99688.91;;;16.21;98.71
79067;BME280;68470;50.224;14.348;2023-06-22T03:19:00;99699.53;;;16.14;99.07
79067;BME280;68470;50.224;14.348;2023-06-22T03:21:28;99693.59;;;16.45;97.77
79067;BME280;68470;50.224;14.348;2023-06-22T03:23:54;99701.91;;;16.50;97.19
79067;BME280;68470;50.224;14.348;2023-06-22T03:26:20;99701.22;;;16.58;96.39
79067;BME280;68470;50.224;14.348;2023-06-22T03:28:45;99707.84;;;16.62;96.45
79067;BME280;68470;50.224;14.348;2023-06-22T03:31:11;99705.13;;;16.57;96.48
79067;BME280;68470;50.224;14.348;2023-06-22T03:33:37;99715.94;;;16.59;96.82
79067;BME280;68470;50.224;14.348;2023-06-22T03:36:03;99709.19;;;16.70;96.45
79067;BME280;68470;50.224;14.348;2023-06-22T03:38:29;99715.91;;;16.64;96.51
79067;BME280;68470;50.224;14.348;2023-06-22T03:40:55;99720.81;;;16.72;96.30
79067;BME280;68470;50.224;14.348;2023-06-22T03:43:20;99717.66;;;16.78;96.28
79067;BME280;68470;50.224;14.348;2023-06-22T03:45:46;99714.44;;;17.28;93.92
79067;BME280;68470;50.224;14.348;2023-06-22T03:48:12;99722.31;;;17.58;91.81
79067;BME280;68470;50.224;14.348;2023-06-22T03:50:38;99712.44;;;17.85;90.86
79067;BME280;68470;50.224;14.348;2023-06-22T03:53:04;99712.91;;;18.19;89.48
79067;BME280;68470;50.224;14.348;2023-06-22T03:55:30;99715.81;;;18.42;88.67
79067;BME280;68470;50.224;14.348;2023-06-22T03:57:56;99728.94;;;18.82;86.17
79067;BME280;68470;50.224;14.348;2023-06-22T04:00:23;99716.72;;;18.92;85.80
79067;BME280;68470;50.224;14.348;2023-06-22T04:02:49;99710.75;;;18.99;85.15
79067;BME280;68470;50.224;14.348;2023-06-22T04:05:15;99710.63;;;19.04;84.81
79067;BME280;68470;50.224;14.348;2023-06-22T04:07:42;99702.31;;;19.12;84.18
79067;BME280;68470;50.224;14.348;2023-06-22T04:10:09;99694.19;;;19.38;82.84
79067;BME280;68470;50.224;14.348;2023-06-22T04:12:34;99693.81;;;19.76;81.38
79067;BME280;68470;50.224;14.348;2023-06-22T04:15:01;99693.41;;;19.91;80.70
79067;BME280;68470;50.224;14.348;2023-06-22T04:17:26;99684.06;;;20.27;78.89
79067;BME280;68470;50.224;14.348;2023-06-22T04:19:52;99686.00;;;20.18;79.52
79067;BME280;68470;50.224;14.348;2023-06-22T04:22:18;99688.50;;;20.28;79.56
79067;BME280;68470;50.224;14.348;2023-06-22T04:24:44;99678.78;;;20.17;79.57
79067;BME280;68470;50.224;14.348;2023-06-22T04:27:10;99684.38;;;20.25;79.16
79067;BME280;68470;50.224;14.348;2023-06-22T04:29:37;99680.63;;;20.69;77.34
79067;BME280;68470;50.224;14.348;2023-06-22T04:32:03;99679.34;;;20.84;76.76
79067;BME280;68470;50.224;14.348;2023-06-22T04:34:31;99681.97;;;21.15;75.51
79067;BME280;68470;50.224;14.348;2023-06-22T04:36:57;99685.63;;;21.33;74.52
79067;BME280;68470;50.224;14.348;2023-06-22T04:39:23;99682.53;;;21.35;74.61
79067;BME280;68470;50.224;14.348;2023-06-22T04:41:49;99686.63;;;21.28;75.46
79067;BME280;68470;50.224;14.348;2023-06-22T04:44:18;99684.31;;;21.48;74.03
79067;BME280;68470;50.224;14.348;2023-06-22T04:46:53;99699.47;;;21.64;73.71
79067;BME280;68470;50.224;14.348;2023-06-22T04:49:20;99701.59;;;21.84;73.18
79067;BME280;68470;50.224;14.348;2023-06-22T04:51:47;99704.19;;;22.07;72.01
79067;BME280;68470;50.224;14.348;2023-06-22T04:54:14;99700.47;;;22.32;71.42
79067;BME280;68470;50.224;14.348;2023-06-22T04:56:39;99701.44;;;22.74;69.45
79067;BME280;68470;50.224;14.348;2023-06-22T04:59:08;99698.63;;;23.04;68.17
79067;BME280;68470;50.224;14.348;2023-06-22T05:01:33;99705.00;;;23.34;67.21
79067;BME280;68470;50.224;14.348;2023-06-22T05:04:00;99705.97;;;23.38;67.00
79067;BME280;68470;50.224;14.348;2023-06-22T05:06:27;99716.66;;;23.65;66.41
79067;BME280;68470;50.224;14.348;2023-06-22T05:08:55;99718.66;;;23.98;65.26
79067;BME280;68470;50.224;14.348;2023-06-22T05:11:25;99719.19;;;24.24;64.21
79067;BME280;68470;50.224;14.348;2023-06-22T05:13:51;99715.97;;;23.48;67.31
79067;BME280;68470;50.224;14.348;2023-06-22T05:16:17;99731.41;;;23.62;66.33
79067;BME280;68470;50.224;14.348;2023-06-22T05:18:43;99717.13;;;24.00;64.87
79067;BME280;68470;50.224;14.348;2023-06-22T05:21:09;99730.19;;;24.17;64.09
79067;BME280;68470;50.224;14.348;2023-06-22T05:23:36;99735.56;;;23.56;66.55
79067;BME280;68470;50.224;14.348;2023-06-22T05:26:01;99735.00;;;23.42;67.99
79067;BME280;68470;50.224;14.348;2023-06-22T05:28:27;99743.59;;;23.66;66.13
79067;BME280;68470;50.224;14.348;2023-06-22T05:30:53;99744.00;;;24.10;65.04
79067;BME280;68470;50.224;14.348;2023-06-22T05:33:19;99746.00;;;24.67;62.61
79067;BME280;68470;50.224;14.348;2023-06-22T05:35:44;99753.16;;;25.38;61.42
79067;BME280;68470;50.224;14.348;2023-06-22T05:38:10;99764.72;;;25.73;59.03
79067;BME280;68470;50.224;14.348;2023-06-22T05:40:36;99775.22;;;24.99;61.67
79067;BME280;68470;50.224;14.348;2023-06-22T05:43:02;99786.78;;;24.37;64.05
79067;BME280;68470;50.224;14.348;2023-06-22T05:45:28;99772.78;;;23.74;66.41
79067;BME280;68470;50.224;14.348;2023-06-22T05:47:54;99768.97;;;23.07;68.94
79067;BME280;68470;50.224;14.348;2023-06-22T05:50:19;99769.91;;;22.82;70.61
79067;BME280;68470;50.224;14.348;2023-06-22T05:52:45;99761.19;;;22.75;70.82
79067;BME280;68470;50.224;14.348;2023-06-22T05:55:11;99762.78;;;23.64;67.68
79067;BME280;68470;50.224;14.348;2023-06-22T05:57:36;99760.22;;;24.25;66.03
79067;BME280;68470;50.224;14.348;2023-06-22T06:00:02;99762.66;;;24.60;64.84
79067;BME280;68470;50.224;14.348;2023-06-22T06:02:32;99772.81;;;24.40;65.27
79067;BME280;68470;50.224;14.348;2023-06-22T06:04:59;99772.00;;;24.40;65.83
79067;BME280;68470;50.224;14.348;2023-06-22T06:07:25;99760.41;;;24.08;66.45
79067;BME280;68470;50.224;14.348;2023-06-22T06:09:51;99762.56;;;24.23;66.89
79067;BME280;68470;50.224;14.348;2023-06-22T06:12:16;99772.50;;;24.66;65.54
79067;BME280;68470;50.224;14.348;2023-06-22T06:14:42;99769.94;;;24.61;65.69
79067;BME280;68470;50.224;14.348;2023-06-22T06:17:08;99780.59;;;24.68;65.43
79067;BME280;68470;50.224;14.348;2023-06-22T06:19:33;99777.22;;;24.99;64.74
79067;BME280;68470;50.224;14.348;2023-06-22T06:21:59;99779.09;;;24.70;65.48
79067;BME280;68470;50.224;14.348;2023-06-22T06:24:25;99765.72;;;24.55;66.13
79067;BME280;68470;50.224;14.348;2023-06-22T06:26:51;99769.75;;;25.03;64.54
79067;BME280;68470;50.224;14.348;2023-06-22T06:29:17;99756.91;;;25.42;63.46
79067;BME280;68470;50.224;14.348;2023-06-22T06:31:43;99758.75;;;26.34;60.33
79067;BME280;68470;50.224;14.348;2023-06-22T06:34:09;99762.91;;;26.84;58.66
79067;BME280;68470;50.224;14.348;2023-06-22T06:36:35;99762.94;;;26.24;60.35
79067;BME280;68470;50.224;14.348;2023-06-22T06:39:00;99750.59;;;27.23;57.44
79067;BME280;68470;50.224;14.348;2023-06-22T06:41:26;99760.00;;;27.47;57.19
79067;BME280;68470;50.224;14.348;2023-06-22T06:43:52;99763.97;;;28.20;55.17
79067;BME280;68470;50.224;14.348;2023-06-22T06:46:19;99750.13;;;28.80;53.38
79067;BME280;68470;50.224;14.348;2023-06-22T06:48:44;99752.47;;;27.90;55.95
79067;BME280;68470;50.224;14.348;2023-06-22T06:51:10;99750.78;;;27.15;58.40
79067;BME280;68470;50.224;14.348;2023-06-22T06:53:37;99742.34;;;28.27;55.80
79067;BME280;68470;50.224;14.348;2023-06-22T06:56:03;99739.06;;;27.67;57.36
79067;BME280;68470;50.224;14.348;2023-06-22T06:58:31;99735.75;;;28.42;54.77
79067;BME280;68470;50.224;14.348;2023-06-22T07:00:57;99729.63;;;28.86;53.37
79067;BME280;68470;50.224;14.348;2023-06-22T07:03:22;99731.56;;;28.82;54.02
79067;BME280;68470;50.224;14.348;2023-06-22T07:05:48;99729.94;;;28.35;54.99
79067;BME280;68470;50.224;14.348;2023-06-22T07:08:14;99718.91;;;28.99;53.27
79067;BME280;68470;50.224;14.348;2023-06-22T07:10:40;99722.09;;;29.50;51.43
79067;BME280;68470;50.224;14.348;2023-06-22T07:13:05;99718.34;;;28.67;54.08
79067;BME280;68470;50.224;14.348;2023-06-22T07:15:31;99704.53;;;27.39;57.93
79067;BME280;68470;50.224;14.348;2023-06-22T07:17:57;99703.25;;;26.69;60.58
79067;BME280;68470;50.224;14.348;2023-06-22T07:20:23;99706.63;;;28.42;55.15
79067;BME280;68470;50.224;14.348;2023-06-22T07:22:48;99697.06;;;29.56;50.75
79067;BME280;68470;50.224;14.348;2023-06-22T07:25:14;99701.53;;;27.32;56.10
79067;BME280;68470;50.224;14.348;2023-06-22T07:27:56;99700.56;;;27.63;55.16
79067;BME280;68470;50.224;14.348;2023-06-22T07:30:22;99706.31;;;27.66;54.70
79067;BME280;68470;50.224;14.348;2023-06-22T07:32:48;99702.88;;;26.87;57.38
79067;BME280;68470;50.224;14.348;2023-06-22T07:35:14;99693.41;;;27.49;55.05
79067;BME280;68470;50.224;14.348;2023-06-22T07:37:42;99687.84;;;26.83;57.50
79067;BME280;68470;50.224;14.348;2023-06-22T07:40:08;99682.94;;;27.50;55.77
79067;BME280;68470;50.224;14.348;2023-06-22T07:42:34;99683.31;;;27.29;56.22
79067;BME280;68470;50.224;14.348;2023-06-22T07:45:01;99671.47;;;27.62;54.63
79067;BME280;68470;50.224;14.348;2023-06-22T07:47:28;99667.94;;;27.65;55.43
79067;BME280;68470;50.224;14.348;2023-06-22T07:49:54;99671.81;;;28.41;53.84
79067;BME280;68470;50.224;14.348;2023-06-22T07:52:22;99660.38;;;27.15;56.41
79067;BME280;68470;50.224;14.348;2023-06-22T07:54:49;99658.53;;;27.42;56.26
79067;BME280;68470;50.224;14.348;2023-06-22T07:57:15;99643.28;;;27.08;56.34
79067;BME280;68470;50.224;14.348;2023-06-22T07:59:41;99648.13;;;27.07;57.36
79067;BME280;68470;50.224;14.348;2023-06-22T08:02:06;99638.97;;;26.31;57.88
79067;BME280;68470;50.224;14.348;2023-06-22T08:04:34;99634.88;;;27.11;56.62
79067;BME280;68470;50.224;14.348;2023-06-22T08:07:00;99642.75;;;27.60;54.94
79067;BME280;68470;50.224;14.348;2023-06-22T08:09:30;99633.78;;;27.97;53.69
79067;BME280;68470;50.224;14.348;2023-06-22T08:11:57;99648.41;;;27.60;55.09
79067;BME280;68470;50.224;14.348;2023-06-22T08:14:44;99649.66;;;28.24;52.71
79067;BME280;68470;50.224;14.348;2023-06-22T08:17:11;99638.50;;;28.84;51.88
79067;BME280;68470;50.224;14.348;2023-06-22T08:19:37;99643.13;;;28.43;52.86
79067;BME280;68470;50.224;14.348;2023-06-22T08:22:03;99644.63;;;29.13;51.45
79067;BME280;68470;50.224;14.348;2023-06-22T08:24:29;99627.34;;;28.42;52.63
79067;BME280;68470;50.224;14.348;2023-06-22T08:26:55;99623.47;;;28.54;51.58
79067;BME280;68470;50.224;14.348;2023-06-22T08:29:21;99646.81;;;28.01;53.36
79067;BME280;68470;50.224;14.348;2023-06-22T08:31:47;99645.44;;;27.53;54.31
79067;BME280;68470;50.224;14.348;2023-06-22T08:34:13;99637.88;;;27.57;54.54
79067;BME280;68470;50.224;14.348;2023-06-22T08:36:39;99632.22;;;27.57;54.64
79067;BME280;68470;50.224;14.348;2023-06-22T08:39:07;99638.63;;;27.73;54.55
79067;BME280;68470;50.224;14.348;2023-06-22T08:41:33;99632.44;;;28.56;53.16
79067;BME280;68470;50.224;14.348;2023-06-22T08:43:59;99628.81;;;29.12;49.50
79067;BME280;68470;50.224;14.348;2023-06-22T08:46:25;99622.19;;;29.00;50.65
79067;BME280;68470;50.224;14.348;2023-06-22T08:48:56;99628.28;;;29.62;48.26
79067;BME280;68470;50.224;14.348;2023-06-22T08:51:25;99623.81;;;29.01;48.96
79067;BME280;68470;50.224;14.348;2023-06-22T08:53:51;99636.50;;;28.85;49.30
79067;BME280;68470;50.224;14.348;2023-06-22T08:56:16;99645.44;;;28.14;49.24
79067;BME280;68470;50.224;14.348;2023-06-22T08:58:42;99642.66;;;28.64;48.54
79067;BME280;68470;50.224;14.348;2023-06-22T09:01:08;99636.03;;;29.39;46.89
79067;BME280;68470;50.224;14.348;2023-06-22T09:03:34;99627.28;;;30.22;45.08
79067;BME280;68470;50.224;14.348;2023-06-22T09:06:01;99637.41;;;29.82;45.56
79067;BME280;68470;50.224;14.348;2023-06-22T09:08:27;99624.00;;;30.16;44.91
79067;BME280;68470;50.224;14.348;2023-06-22T09:10:53;99631.97;;;31.03;43.73
79067;BME280;68470;50.224;14.348;2023-06-22T09:13:19;99628.53;;;29.87;45.74
79067;BME280;68470;50.224;14.348;2023-06-22T09:15:45;99633.59;;;29.68;45.60
79067;BME280;68470;50.224;14.348;2023-06-22T09:18:11;99628.22;;;29.96;44.91
79067;BME280;68470;50.224;14.348;2023-06-22T09:20:37;99616.56;;;30.05;45.77
79067;BME280;68470;50.224;14.348;2023-06-22T09:23:03;99616.59;;;30.56;43.71
79067;BME280;68470;50.224;14.348;2023-06-22T09:25:28;99616.50;;;30.01;45.40
79067;BME280;68470;50.224;14.348;2023-06-22T09:27:54;99605.75;;;30.65;43.75
79067;BME280;68470;50.224;14.348;2023-06-22T09:30:20;99605.41;;;31.57;41.58
79067;BME280;68470;50.224;14.348;2023-06-22T09:32:46;99606.59;;;30.69;43.49
79067;BME280;68470;50.224;14.348;2023-06-22T09:35:12;99603.44;;;30.81;42.07
79067;BME280;68470;50.224;14.348;2023-06-22T09:37:40;99598.03;;;31.28;41.63
79067;BME280;68470;50.224;14.348;2023-06-22T09:40:06;99599.88;;;32.11;41.24
79067;BME280;68470;50.224;14.348;2023-06-22T09:42:36;99591.94;;;29.75;46.08
79067;BME280;68470;50.224;14.348;2023-06-22T09:45:02;99596.19;;;30.40;44.93
79067;BME280;68470;50.224;14.348;2023-06-22T09:47:29;99602.28;;;30.93;42.72
79067;BME280;68470;50.224;14.348;2023-06-22T09:49:55;99599.47;;;30.97;43.76
79067;BME280;68470;50.224;14.348;2023-06-22T09:52:21;99593.72;;;30.35;44.34
79067;BME280;68470;50.224;14.348;2023-06-22T09:54:47;99591.34;;;30.95;43.89
79067;BME280;68470;50.224;14.348;2023-06-22T09:57:13;99583.53;;;30.27;45.34
79067;BME280;68470;50.224;14.348;2023-06-22T09:59:39;99571.69;;;30.69;44.51
79067;BME280;68470;50.224;14.348;2023-06-22T10:02:06;99580.78;;;30.96;44.43
79067;BME280;68470;50.224;14.348;2023-06-22T10:04:32;99577.34;;;30.65;44.83
79067;BME280;68470;50.224;14.348;2023-06-22T10:06:58;99575.78;;;31.69;42.27
79067;BME280;68470;50.224;14.348;2023-06-22T10:09:23;99573.28;;;30.66;44.14
79067;BME280;68470;50.224;14.348;2023-06-22T10:11:49;99574.25;;;31.96;41.31
79067;BME280;68470;50.224;14.348;2023-06-22T10:14:15;99568.13;;;31.80;40.94
79067;BME280;68470;50.224;14.348;2023-06-22T10:16:42;99560.66;;;31.26;41.84
79067;BME280;68470;50.224;14.348;2023-06-22T10:19:07;99577.38;;;31.49;42.48
79067;BME280;68470;50.224;14.348;2023-06-22T10:21:33;99571.78;;;32.77;40.12
79067;BME280;68470;50.224;14.348;2023-06-22T10:24:00;99574.59;;;32.95;39.49
79067;BME280;68470;50.224;14.348;2023-06-22T10:26:35;99567.34;;;32.37;40.57
79067;BME280;68470;50.224;14.348;2023-06-22T10:29:04;99564.88;;;32.07;41.02
79067;BME280;68470;50.224;14.348;2023-06-22T10:31:30;99571.50;;;31.09;43.17
79067;BME280;68470;50.224;14.348;2023-06-22T10:33:56;99564.03;;;31.74;42.61
79067;BME280;68470;50.224;14.348;2023-06-22T10:36:22;99565.31;;;32.48;40.40
79067;BME280;68470;50.224;14.348;2023-06-22T10:38:48;99564.56;;;31.03;42.63
79067;BME280;68470;50.224;14.348;2023-06-22T10:41:14;99563.28;;;32.45;40.39
79067;BME280;68470;50.224;14.348;2023-06-22T10:43:41;99557.56;;;31.95;41.41
79067;BME280;68470;50.224;14.348;2023-06-22T10:46:07;99550.22;;;32.69;39.18
79067;BME280;68470;50.224;14.348;2023-06-22T10:48:33;99562.81;;;32.82;39.22
79067;BME280;68470;50.224;14.348;2023-06-22T10:50:59;99555.91;;;32.65;39.62
79067;BME280;68470;50.224;14.348;2023-06-22T10:53:24;99554.72;;;33.68;37.44
79067;BME280;68470;50.224;14.348;2023-06-22T10:55:50;99545.75;;;31.89;42.83
79067;BME280;68470;50.224;14.348;2023-06-22T10:58:18;99538.59;;;33.26;39.61
79067;BME280;68470;50.224;14.348;2023-06-22T11:00:45;99545.28;;;32.87;40.14
79067;BME280;68470;50.224;14.348;2023-06-22T11:03:10;99527.47;;;31.83;41.66
79067;BME280;68470;50.224;14.348;2023-06-22T11:05:36;99539.59;;;32.80;40.08
79067;BME280;68470;50.224;14.348;2023-06-22T11:08:02;99521.84;;;33.42;39.02
79067;BME280;68470;50.224;14.348;2023-06-22T11:10:28;99529.03;;;32.70;40.64
79067;BME280;68470;50.224;14.348;2023-06-22T11:12:53;99522.28;;;33.37;38.78
79067;BME280;68470;50.224;14.348;2023-06-22T11:15:21;99527.16;;;33.40;38.65
79067;BME280;68470;50.224;14.348;2023-06-22T11:17:46;99516.75;;;32.98;39.61
79067;BME280;68470;50.224;14.348;2023-06-22T11:20:12;99523.16;;;33.19;39.35
79067;BME280;68470;50.224;14.348;2023-06-22T11:22:39;99521.25;;;32.88;41.27
79067;BME280;68470;50.224;14.348;2023-06-22T11:25:05;99508.25;;;32.87;40.81
79067;BME280;68470;50.224;14.348;2023-06-22T11:27:31;99514.59;;;33.93;37.21
79067;BME280;68470;50.224;14.348;2023-06-22T11:29:57;99511.75;;;34.75;35.98
79067;BME280;68470;50.224;14.348;2023-06-22T11:32:23;99505.78;;;32.93;39.17
79067;BME280;68470;50.224;14.348;2023-06-22T11:34:49;99496.94;;;32.51;39.59
79067;BME280;68470;50.224;14.348;2023-06-22T11:37:15;99496.50;;;32.60;39.95
79067;BME280;68470;50.224;14.348;2023-06-22T11:39:42;99495.94;;;33.77;37.16
79067;BME280;68470;50.224;14.348;2023-06-22T11:42:08;99479.94;;;33.91;36.60
79067;BME280;68470;50.224;14.348;2023-06-22T11:44:35;99488.00;;;32.24;39.57
79067;BME280;68470;50.224;14.348;2023-06-22T11:47:02;99482.59;;;32.73;37.82
79067;BME280;68470;50.224;14.348;2023-06-22T11:49:30;99476.19;;;32.40;39.57
79067;BME280;68470;50.224;14.348;2023-06-22T11:51:56;99477.03;;;32.30;39.58
79067;BME280;68470;50.224;14.348;2023-06-22T11:54:22;99473.75;;;31.42;41.15
79067;BME280;68470;50.224;14.348;2023-06-22T11:56:47;99470.56;;;33.94;36.26
79067;BME280;68470;50.224;14.348;2023-06-22T11:59:13;99478.63;;;31.53;40.56
79067;BME280;68470;50.224;14.348;2023-06-22T12:01:39;99474.03;;;32.94;38.48
79067;BME280;68470;50.224;14.348;2023-06-22T12:04:05;99470.50;;;32.22;39.93
79067;BME280;68470;50.224;14.348;2023-06-22T12:06:37;99462.84;;;34.32;36.32
79067;BME280;68470;50.224;14.348;2023-06-22T12:09:04;99464.03;;;33.90;36.19
79067;BME280;68470;50.224;14.348;2023-06-22T12:11:32;99471.34;;;32.30;38.99
79067;BME280;68470;50.224;14.348;2023-06-22T12:13:58;99461.84;;;33.56;36.54
79067;BME280;68470;50.224;14.348;2023-06-22T12:16:28;99463.53;;;33.50;36.58
79067;BME280;68470;50.224;14.348;2023-06-22T12:18:54;99469.69;;;33.45;37.15
79067;BME280;68470;50.224;14.348;2023-06-22T12:21:20;99465.28;;;33.22;37.35
79067;BME280;68470;50.224;14.348;2023-06-22T12:23:46;99456.75;;;33.82;36.52
79067;BME280;68470;50.224;14.348;2023-06-22T12:26:11;99452.84;;;33.61;37.54
79067;BME280;68470;50.224;14.348;2023-06-22T12:28:38;99446.53;;;33.29;38.30
79067;BME280;68470;50.224;14.348;2023-06-22T12:31:03;99443.00;;;34.89;35.16
79067;BME280;68470;50.224;14.348;2023-06-22T12:33:30;99418.09;;;35.47;33.35
79067;BME280;68470;50.224;14.348;2023-06-22T12:35:56;99428.00;;;34.06;36.36
79067;BME280;68470;50.224;14.348;2023-06-22T12:38:22;99427.31;;;32.59;38.41
79067;BME280;68470;50.224;14.348;2023-06-22T12:40:50;99416.56;;;34.10;36.07
79067;BME280;68470;50.224;14.348;2023-06-22T12:43:16;99404.38;;;32.91;37.91
79067;BME280;68470;50.224;14.348;2023-06-22T12:45:42;99408.38;;;31.78;40.94
79067;BME280;68470;50.224;14.348;2023-06-22T12:48:08;99411.91;;;32.43;40.20
79067;BME280;68470;50.224;14.348;2023-06-22T12:50:34;99409.19;;;33.64;37.00
79067;BME280;68470;50.224;14.348;2023-06-22T12:53:00;99406.81;;;32.89;38.54
79067;BME280;68470;50.224;14.348;2023-06-22T12:55:28;99407.84;;;33.24;38.35